sensor_id;sensor_type;location;lat;lon;timestamp;P1;durP1;ratioP1;P2;durP2;ratioP2
1525;SDS011;756;49.982;8.240;2022-08-25T00:01:37;4.33;;;2.90;;
1525;SDS011;756;49.982;8.240;2022-08-25T00:04:13;4.63;;;3.20;;
1525;SDS011;756;49.982;8.240;2022-08-25T00:06:43;3.57;;;3.37;;
1525;SDS011;756;49.982;8.240;2022-08-25T00:09:12;3.90;;;3.40;;
1525;SDS011;756;49.982;8.240;2022-08-25T00:11:41;3.50;;;3.20;;
1525;SDS011;756;49.982;8.240;2022-08-25T00:14:10;6.10;;;3.60;;
1525;SDS011;756;49.982;8.240;2022-08-25T00:16:39;3.87;;;3.07;;
1525;SDS011;756;49.982;8.240;2022-08-25T00:19:09;3.80;;;3.50;;
1525;SDS011;756;49.982;8.240;2022-08-25T00:21:39;3.50;;;3.20;;
1525;SDS011;756;49.982;8.240;2022-08-25T00:24:07;3.40;;;3.10;;
1525;SDS011;756;49.982;8.240;2022-08-25T00:26:40;4.43;;;2.97;;
1525;SDS011;756;49.982;8.240;2022-08-25T00:29:09;3.03;;;2.77;;
1525;SDS011;756;49.982;8.240;2022-08-25T00:31:37;3.70;;;2.90;;
1525;SDS011;756;49.982;8.240;2022-08-25T00:34:06;6.30;;;3.30;;
1525;SDS011;756;49.982;8.240;2022-08-25T00:36:34;5.90;;;3.87;;
1525;SDS011;756;49.982;8.240;2022-08-25T00:39:01;3.63;;;3.33;;
1525;SDS011;756;49.982;8.240;2022-08-25T00:41:29;3.53;;;3.10;;
1525;SDS011;756;49.982;8.240;2022-08-25T00:43:57;3.83;;;3.53;;
1525;SDS011;756;49.982;8.240;2022-08-25T00:46:27;5.03;;;3.50;;
1525;SDS011;756;49.982;8.240;2022-08-25T00:49:02;4.83;;;3.07;;
1525;SDS011;756;49.982;8.240;2022-08-25T00:51:43;2.77;;;2.57;;
1525;SDS011;756;49.982;8.240;2022-08-25T00:54:14;3.43;;;2.93;;
1525;SDS011;756;49.982;8.240;2022-08-25T00:56:43;3.40;;;3.13;;
1525;SDS011;756;49.982;8.240;2022-08-25T00:59:11;4.37;;;3.10;;
1525;SDS011;756;49.982;8.240;2022-08-25T01:01:39;3.43;;;3.10;;
1525;SDS011;756;49.982;8.240;2022-08-25T01:04:06;5.80;;;3.30;;
1525;SDS011;756;49.982;8.240;2022-08-25T01:06:35;4.17;;;2.97;;
1525;SDS011;756;49.982;8.240;2022-08-25T01:09:04;3.50;;;3.20;;
1525;SDS011;756;49.982;8.240;2022-08-25T01:11:33;4.60;;;3.40;;
1525;SDS011;756;49.982;8.240;2022-08-25T01:14:00;3.90;;;3.60;;
1525;SDS011;756;49.982;8.240;2022-08-25T01:16:33;3.60;;;2.97;;
1525;SDS011;756;49.982;8.240;2022-08-25T01:19:02;4.63;;;2.83;;
1525;SDS011;756;49.982;8.240;2022-08-25T01:21:31;3.17;;;2.80;;
1525;SDS011;756;49.982;8.240;2022-08-25T01:24:04;3.73;;;3.03;;
1525;SDS011;756;49.982;8.240;2022-08-25T01:26:33;4.43;;;4.00;;
1525;SDS011;756;49.982;8.240;2022-08-25T01:29:02;5.67;;;3.80;;
1525;SDS011;756;49.982;8.240;2022-08-25T01:31:50;4.00;;;3.70;;
1525;SDS011;756;49.982;8.240;2022-08-25T01:34:24;4.17;;;3.63;;
1525;SDS011;756;49.982;8.240;2022-08-25T01:36:53;5.37;;;3.70;;
1525;SDS011;756;49.982;8.240;2022-08-25T01:39:21;5.13;;;3.07;;
1525;SDS011;756;49.982;8.240;2022-08-25T01:44:52;3.60;;;3.30;;
1525;SDS011;756;49.982;8.240;2022-08-25T01:47:19;4.60;;;3.60;;
1525;SDS011;756;49.982;8.240;2022-08-25T01:49:46;3.73;;;3.43;;
1525;SDS011;756;49.982;8.240;2022-08-25T01:52:16;3.50;;;2.73;;
1525;SDS011;756;49.982;8.240;2022-08-25T01:54:48;3.30;;;3.00;;
1525;SDS011;756;49.982;8.240;2022-08-25T01:57:15;5.53;;;3.10;;
1525;SDS011;756;49.982;8.240;2022-08-25T01:59:42;4.03;;;3.50;;
1525;SDS011;756;49.982;8.240;2022-08-25T02:02:10;6.33;;;3.40;;
1525;SDS011;756;49.982;8.240;2022-08-25T02:04:37;3.23;;;2.93;;
1525;SDS011;756;49.982;8.240;2022-08-25T02:07:06;4.43;;;3.20;;
1525;SDS011;756;49.982;8.240;2022-08-25T02:09:35;5.57;;;3.97;;
1525;SDS011;756;49.982;8.240;2022-08-25T02:12:03;3.67;;;3.37;;
1525;SDS011;756;49.982;8.240;2022-08-25T02:14:29;3.13;;;2.83;;
1525;SDS011;756;49.982;8.240;2022-08-25T02:16:56;4.30;;;3.40;;
1525;SDS011;756;49.982;8.240;2022-08-25T02:19:24;3.87;;;3.47;;
1525;SDS011;756;49.982;8.240;2022-08-25T02:21:51;3.73;;;3.43;;
1525;SDS011;756;49.982;8.240;2022-08-25T02:24:18;3.10;;;2.80;;
1525;SDS011;756;49.982;8.240;2022-08-25T02:26:45;3.10;;;2.90;;
1525;SDS011;756;49.982;8.240;2022-08-25T02:29:12;4.17;;;3.77;;
1525;SDS011;756;49.982;8.240;2022-08-25T02:31:39;4.37;;;4.03;;
1525;SDS011;756;49.982;8.240;2022-08-25T02:34:07;4.30;;;3.47;;
1525;SDS011;756;49.982;8.240;2022-08-25T02:36:35;3.87;;;3.20;;
1525;SDS011;756;49.982;8.240;2022-08-25T02:39:04;3.57;;;3.17;;
1525;SDS011;756;49.982;8.240;2022-08-25T02:41:32;3.03;;;2.77;;
1525;SDS011;756;49.982;8.240;2022-08-25T02:44:00;4.63;;;3.70;;
1525;SDS011;756;49.982;8.240;2022-08-25T02:46:28;3.90;;;3.50;;
1525;SDS011;756;49.982;8.240;2022-08-25T02:48:56;4.10;;;3.20;;
1525;SDS011;756;49.982;8.240;2022-08-25T02:51:24;7.83;;;3.20;;
1525;SDS011;756;49.982;8.240;2022-08-25T02:53:53;6.07;;;3.83;;
1525;SDS011;756;49.982;8.240;2022-08-25T02:56:21;8.50;;;3.87;;
1525;SDS011;756;49.982;8.240;2022-08-25T02:58:49;4.17;;;3.77;;
1525;SDS011;756;49.982;8.240;2022-08-25T03:01:16;3.50;;;3.20;;
1525;SDS011;756;49.982;8.240;2022-08-25T03:03:44;4.13;;;3.73;;
1525;SDS011;756;49.982;8.240;2022-08-25T03:06:13;7.23;;;4.20;;
1525;SDS011;756;49.982;8.240;2022-08-25T03:08:41;4.10;;;3.70;;
1525;SDS011;756;49.982;8.240;2022-08-25T03:11:09;5.03;;;3.63;;
1525;SDS011;756;49.982;8.240;2022-08-25T03:13:36;3.83;;;3.53;;
1525;SDS011;756;49.982;8.240;2022-08-25T03:16:04;4.47;;;4.07;;
1525;SDS011;756;49.982;8.240;2022-08-25T03:18:38;4.03;;;3.63;;
1525;SDS011;756;49.982;8.240;2022-08-25T03:21:07;5.83;;;3.80;;
1525;SDS011;756;49.982;8.240;2022-08-25T03:23:36;4.53;;;3.80;;
1525;SDS011;756;49.982;8.240;2022-08-25T03:26:04;5.60;;;4.00;;
1525;SDS011;756;49.982;8.240;2022-08-25T03:28:49;4.83;;;3.90;;
1525;SDS011;756;49.982;8.240;2022-08-25T03:31:16;4.93;;;3.60;;
1525;SDS011;756;49.982;8.240;2022-08-25T03:33:44;3.87;;;3.57;;
1525;SDS011;756;49.982;8.240;2022-08-25T03:36:11;5.70;;;4.40;;
1525;SDS011;756;49.982;8.240;2022-08-25T03:38:37;5.93;;;4.10;;
1525;SDS011;756;49.982;8.240;2022-08-25T03:41:11;6.10;;;3.80;;
1525;SDS011;756;49.982;8.240;2022-08-25T03:43:40;5.37;;;4.40;;
1525;SDS011;756;49.982;8.240;2022-08-25T03:46:07;6.17;;;4.83;;
1525;SDS011;756;49.982;8.240;2022-08-25T03:48:34;5.67;;;4.10;;
1525;SDS011;756;49.982;8.240;2022-08-25T03:51:00;4.17;;;3.80;;
1525;SDS011;756;49.982;8.240;2022-08-25T03:53:27;5.10;;;4.00;;
1525;SDS011;756;49.982;8.240;2022-08-25T03:55:54;3.90;;;3.47;;
1525;SDS011;756;49.982;8.240;2022-08-25T03:58:21;4.50;;;4.10;;
1525;SDS011;756;49.982;8.240;2022-08-25T04:00:47;5.03;;;4.10;;
1525;SDS011;756;49.982;8.240;2022-08-25T04:03:14;6.30;;;3.87;;
1525;SDS011;756;49.982;8.240;2022-08-25T04:05:42;4.83;;;4.27;;
1525;SDS011;756;49.982;8.240;2022-08-25T04:08:09;5.80;;;4.90;;
1525;SDS011;756;49.982;8.240;2022-08-25T04:10:36;5.57;;;4.03;;
1525;SDS011;756;49.982;8.240;2022-08-25T04:13:03;7.13;;;4.33;;
1525;SDS011;756;49.982;8.240;2022-08-25T04:15:30;4.67;;;4.27;;
1525;SDS011;756;49.982;8.240;2022-08-25T04:17:57;4.83;;;4.37;;
1525;SDS011;756;49.982;8.240;2022-08-25T04:20:24;7.50;;;5.17;;
1525;SDS011;756;49.982;8.240;2022-08-25T04:22:51;6.23;;;4.47;;
1525;SDS011;756;49.982;8.240;2022-08-25T04:25:18;6.30;;;4.73;;
1525;SDS011;756;49.982;8.240;2022-08-25T04:27:45;4.80;;;4.30;;
1525;SDS011;756;49.982;8.240;2022-08-25T04:30:12;4.63;;;3.90;;
1525;SDS011;756;49.982;8.240;2022-08-25T04:32:39;5.97;;;4.00;;
1525;SDS011;756;49.982;8.240;2022-08-25T04:35:06;6.80;;;5.10;;
1525;SDS011;756;49.982;8.240;2022-08-25T04:37:34;7.03;;;5.93;;
1525;SDS011;756;49.982;8.240;2022-08-25T04:40:01;8.20;;;5.03;;
1525;SDS011;756;49.982;8.240;2022-08-25T04:42:28;6.73;;;5.07;;
1525;SDS011;756;49.982;8.240;2022-08-25T04:44:55;5.40;;;4.63;;
1525;SDS011;756;49.982;8.240;2022-08-25T04:47:21;7.43;;;4.67;;
1525;SDS011;756;49.982;8.240;2022-08-25T04:49:48;4.80;;;4.37;;
1525;SDS011;756;49.982;8.240;2022-08-25T04:52:15;5.60;;;3.70;;
1525;SDS011;756;49.982;8.240;2022-08-25T04:54:42;7.13;;;5.20;;
1525;SDS011;756;49.982;8.240;2022-08-25T04:57:09;8.03;;;5.00;;
1525;SDS011;756;49.982;8.240;2022-08-25T04:59:36;6.67;;;4.80;;
1525;SDS011;756;49.982;8.240;2022-08-25T05:02:04;8.37;;;5.10;;
1525;SDS011;756;49.982;8.240;2022-08-25T05:04:32;5.60;;;4.60;;
1525;SDS011;756;49.982;8.240;2022-08-25T05:07:00;8.67;;;5.17;;
1525;SDS011;756;49.982;8.240;2022-08-25T05:09:28;6.23;;;4.77;;
1525;SDS011;756;49.982;8.240;2022-08-25T05:11:58;5.70;;;4.17;;
1525;SDS011;756;49.982;8.240;2022-08-25T05:14:29;5.60;;;5.10;;
1525;SDS011;756;49.982;8.240;2022-08-25T05:16:57;10.93;;;5.00;;
1525;SDS011;756;49.982;8.240;2022-08-25T05:19:23;9.00;;;4.60;;
1525;SDS011;756;49.982;8.240;2022-08-25T05:21:51;6.73;;;5.10;;
1525;SDS011;756;49.982;8.240;2022-08-25T05:24:19;6.90;;;5.00;;
1525;SDS011;756;49.982;8.240;2022-08-25T05:26:46;7.50;;;4.73;;
1525;SDS011;756;49.982;8.240;2022-08-25T05:29:13;5.40;;;4.60;;
1525;SDS011;756;49.982;8.240;2022-08-25T05:31:40;9.00;;;4.80;;
1525;SDS011;756;49.982;8.240;2022-08-25T05:34:15;10.90;;;5.10;;
1525;SDS011;756;49.982;8.240;2022-08-25T05:36:44;10.30;;;5.27;;
1525;SDS011;756;49.982;8.240;2022-08-25T05:39:11;5.67;;;5.17;;
1525;SDS011;756;49.982;8.240;2022-08-25T05:41:38;5.80;;;5.20;;
1525;SDS011;756;49.982;8.240;2022-08-25T05:44:04;9.07;;;5.97;;
1525;SDS011;756;49.982;8.240;2022-08-25T05:46:31;5.30;;;4.73;;
1525;SDS011;756;49.982;8.240;2022-08-25T05:48:58;5.63;;;5.13;;
1525;SDS011;756;49.982;8.240;2022-08-25T05:51:25;7.90;;;5.80;;
1525;SDS011;756;49.982;8.240;2022-08-25T05:53:52;5.80;;;5.20;;
1525;SDS011;756;49.982;8.240;2022-08-25T05:56:19;7.93;;;5.47;;
1525;SDS011;756;49.982;8.240;2022-08-25T05:58:46;6.17;;;5.27;;
1525;SDS011;756;49.982;8.240;2022-08-25T06:01:26;9.73;;;5.43;;
1525;SDS011;756;49.982;8.240;2022-08-25T06:04:15;6.97;;;5.67;;
1525;SDS011;756;49.982;8.240;2022-08-25T06:06:47;6.37;;;5.33;;
1525;SDS011;756;49.982;8.240;2022-08-25T06:09:15;8.77;;;5.10;;
1525;SDS011;756;49.982;8.240;2022-08-25T06:11:42;7.47;;;6.03;;
1525;SDS011;756;49.982;8.240;2022-08-25T06:14:09;8.70;;;6.20;;
1525;SDS011;756;49.982;8.240;2022-08-25T06:16:37;7.43;;;5.30;;
1525;SDS011;756;49.982;8.240;2022-08-25T06:19:05;7.63;;;6.53;;
1525;SDS011;756;49.982;8.240;2022-08-25T06:21:33;7.27;;;6.50;;
1525;SDS011;756;49.982;8.240;2022-08-25T06:24:00;7.67;;;6.90;;
1525;SDS011;756;49.982;8.240;2022-08-25T06:26:27;10.70;;;7.10;;
1525;SDS011;756;49.982;8.240;2022-08-25T06:28:53;8.80;;;7.30;;
1525;SDS011;756;49.982;8.240;2022-08-25T06:31:20;8.40;;;7.47;;
1525;SDS011;756;49.982;8.240;2022-08-25T06:33:47;10.00;;;6.63;;
1525;SDS011;756;49.982;8.240;2022-08-25T06:36:15;7.60;;;5.73;;
1525;SDS011;756;49.982;8.240;2022-08-25T06:38:42;7.83;;;6.80;;
1525;SDS011;756;49.982;8.240;2022-08-25T06:41:09;6.90;;;6.30;;
1525;SDS011;756;49.982;8.240;2022-08-25T06:43:35;7.40;;;6.30;;
1525;SDS011;756;49.982;8.240;2022-08-25T06:46:13;12.57;;;7.50;;
1525;SDS011;756;49.982;8.240;2022-08-25T06:48:41;10.27;;;7.50;;
1525;SDS011;756;49.982;8.240;2022-08-25T06:51:09;8.50;;;7.63;;
1525;SDS011;756;49.982;8.240;2022-08-25T06:53:39;7.83;;;6.80;;
1525;SDS011;756;49.982;8.240;2022-08-25T06:56:07;9.77;;;7.80;;
1525;SDS011;756;49.982;8.240;2022-08-25T06:58:34;8.10;;;6.67;;
1525;SDS011;756;49.982;8.240;2022-08-25T07:01:17;9.97;;;7.63;;
1525;SDS011;756;49.982;8.240;2022-08-25T07:03:52;11.00;;;7.27;;
1525;SDS011;756;49.982;8.240;2022-08-25T07:06:23;7.77;;;6.97;;
1525;SDS011;756;49.982;8.240;2022-08-25T07:08:50;7.90;;;6.40;;
1525;SDS011;756;49.982;8.240;2022-08-25T07:11:17;7.90;;;7.20;;
1525;SDS011;756;49.982;8.240;2022-08-25T07:13:46;7.43;;;6.60;;
1525;SDS011;756;49.982;8.240;2022-08-25T07:16:14;10.70;;;7.77;;
1525;SDS011;756;49.982;8.240;2022-08-25T07:18:41;11.47;;;7.30;;
1525;SDS011;756;49.982;8.240;2022-08-25T07:21:09;8.00;;;6.70;;
1525;SDS011;756;49.982;8.240;2022-08-25T07:23:37;7.00;;;6.30;;
1525;SDS011;756;49.982;8.240;2022-08-25T07:26:39;8.33;;;7.17;;
1525;SDS011;756;49.982;8.240;2022-08-25T07:29:09;7.43;;;6.33;;
1525;SDS011;756;49.982;8.240;2022-08-25T07:31:39;7.97;;;6.60;;
1525;SDS011;756;49.982;8.240;2022-08-25T07:34:06;8.33;;;7.53;;
1525;SDS011;756;49.982;8.240;2022-08-25T07:36:53;8.63;;;7.73;;
1525;SDS011;756;49.982;8.240;2022-08-25T07:39:22;7.40;;;6.70;;
1525;SDS011;756;49.982;8.240;2022-08-25T07:41:49;9.40;;;7.17;;
1525;SDS011;756;49.982;8.240;2022-08-25T07:44:17;7.83;;;6.93;;
1525;SDS011;756;49.982;8.240;2022-08-25T07:46:46;13.40;;;7.30;;
1525;SDS011;756;49.982;8.240;2022-08-25T07:49:15;10.40;;;7.90;;
1525;SDS011;756;49.982;8.240;2022-08-25T07:51:48;8.13;;;6.97;;
1525;SDS011;756;49.982;8.240;2022-08-25T07:54:30;10.10;;;7.60;;
1525;SDS011;756;49.982;8.240;2022-08-25T07:57:00;8.60;;;7.67;;
1525;SDS011;756;49.982;8.240;2022-08-25T07:59:31;7.70;;;6.90;;
1525;SDS011;756;49.982;8.240;2022-08-25T08:02:05;9.97;;;7.40;;
1525;SDS011;756;49.982;8.240;2022-08-25T08:04:44;7.57;;;6.87;;
1525;SDS011;756;49.982;8.240;2022-08-25T08:07:17;7.30;;;6.60;;
1525;SDS011;756;49.982;8.240;2022-08-25T08:09:51;7.83;;;7.03;;
1525;SDS011;756;49.982;8.240;2022-08-25T08:12:38;9.40;;;6.57;;
1525;SDS011;756;49.982;8.240;2022-08-25T08:15:05;8.77;;;7.83;;
1525;SDS011;756;49.982;8.240;2022-08-25T08:17:37;8.93;;;6.93;;
1525;SDS011;756;49.982;8.240;2022-08-25T08:20:05;7.80;;;6.70;;
1525;SDS011;756;49.982;8.240;2022-08-25T08:22:35;9.20;;;7.83;;
1525;SDS011;756;49.982;8.240;2022-08-25T08:25:04;7.80;;;7.10;;
1525;SDS011;756;49.982;8.240;2022-08-25T08:27:35;7.63;;;6.90;;
1525;SDS011;756;49.982;8.240;2022-08-25T08:30:03;8.27;;;7.10;;
1525;SDS011;756;49.982;8.240;2022-08-25T08:32:30;7.90;;;6.93;;
1525;SDS011;756;49.982;8.240;2022-08-25T08:35:17;7.83;;;6.90;;
1525;SDS011;756;49.982;8.240;2022-08-25T08:37:44;7.77;;;7.07;;
1525;SDS011;756;49.982;8.240;2022-08-25T08:40:11;9.00;;;6.77;;
1525;SDS011;756;49.982;8.240;2022-08-25T08:42:48;10.20;;;7.67;;
1525;SDS011;756;49.982;8.240;2022-08-25T08:48:09;7.47;;;6.43;;
1525;SDS011;756;49.982;8.240;2022-08-25T08:56:15;7.07;;;6.10;;
1525;SDS011;756;49.982;8.240;2022-08-25T08:58:49;7.50;;;6.70;;
1525;SDS011;756;49.982;8.240;2022-08-25T09:01:23;7.87;;;6.80;;
1525;SDS011;756;49.982;8.240;2022-08-25T09:03:55;7.90;;;7.10;;
1525;SDS011;756;49.982;8.240;2022-08-25T09:06:30;11.00;;;8.10;;
1525;SDS011;756;49.982;8.240;2022-08-25T09:09:04;10.40;;;7.70;;
1525;SDS011;756;49.982;8.240;2022-08-25T09:11:47;7.73;;;7.03;;
1525;SDS011;756;49.982;8.240;2022-08-25T09:14:34;9.10;;;7.43;;
1525;SDS011;756;49.982;8.240;2022-08-25T09:28:42;8.67;;;6.83;;
1525;SDS011;756;49.982;8.240;2022-08-25T09:31:21;8.97;;;8.00;;
1525;SDS011;756;49.982;8.240;2022-08-25T09:33:55;8.77;;;7.20;;
1525;SDS011;756;49.982;8.240;2022-08-25T09:36:25;8.23;;;7.17;;
1525;SDS011;756;49.982;8.240;2022-08-25T09:38:52;7.37;;;6.63;;
1525;SDS011;756;49.982;8.240;2022-08-25T09:44:17;7.90;;;7.10;;
1525;SDS011;756;49.982;8.240;2022-08-25T09:49:38;7.47;;;6.67;;
1525;SDS011;756;49.982;8.240;2022-08-25T09:54:50;7.70;;;7.00;;
1525;SDS011;756;49.982;8.240;2022-08-25T09:57:26;8.27;;;7.07;;
1525;SDS011;756;49.982;8.240;2022-08-25T10:00:13;7.50;;;6.80;;
1525;SDS011;756;49.982;8.240;2022-08-25T10:02:44;7.27;;;6.60;;
1525;SDS011;756;49.982;8.240;2022-08-25T10:05:31;8.00;;;7.30;;
1525;SDS011;756;49.982;8.240;2022-08-25T10:08:02;8.30;;;7.47;;
1525;SDS011;756;49.982;8.240;2022-08-25T10:10:42;8.37;;;6.40;;
1525;SDS011;756;49.982;8.240;2022-08-25T10:13:12;8.20;;;6.13;;
1525;SDS011;756;49.982;8.240;2022-08-25T10:15:48;7.20;;;6.10;;
1525;SDS011;756;49.982;8.240;2022-08-25T10:19:04;6.80;;;5.95;;
1525;SDS011;756;49.982;8.240;2022-08-25T10:21:40;5.93;;;5.32;;
1525;SDS011;756;49.982;8.240;2022-08-25T10:24:09;11.68;;;6.28;;
1525;SDS011;756;49.982;8.240;2022-08-25T10:37:21;6.57;;;5.97;;
1525;SDS011;756;49.982;8.240;2022-08-25T10:42:46;7.60;;;6.82;;
1525;SDS011;756;49.982;8.240;2022-08-25T10:45:56;7.03;;;6.25;;
1525;SDS011;756;49.982;8.240;2022-08-25T10:51:37;5.90;;;5.32;;
1525;SDS011;756;49.982;8.240;2022-08-25T11:00:36;6.32;;;5.25;;
1525;SDS011;756;49.982;8.240;2022-08-25T11:08:11;6.55;;;5.65;;
1525;SDS011;756;49.982;8.240;2022-08-25T11:10:51;5.10;;;4.63;;
1525;SDS011;756;49.982;8.240;2022-08-25T11:13:42;5.50;;;4.82;;
1525;SDS011;756;49.982;8.240;2022-08-25T11:18:58;10.57;;;5.13;;
1525;SDS011;756;49.982;8.240;2022-08-25T11:24:14;5.50;;;5.00;;
1525;SDS011;756;49.982;8.240;2022-08-25T11:27:10;6.00;;;5.40;;
1525;SDS011;756;49.982;8.240;2022-08-25T11:29:53;6.13;;;5.60;;
1525;SDS011;756;49.982;8.240;2022-08-25T11:32:31;6.10;;;5.60;;
1525;SDS011;756;49.982;8.240;2022-08-25T11:35:02;6.20;;;5.53;;
1525;SDS011;756;49.982;8.240;2022-08-25T11:37:32;6.50;;;5.90;;
1525;SDS011;756;49.982;8.240;2022-08-25T11:53:30;6.80;;;6.20;;
1525;SDS011;756;49.982;8.240;2022-08-25T11:56:04;6.70;;;6.00;;
1525;SDS011;756;49.982;8.240;2022-08-25T11:58:57;6.47;;;5.87;;
1525;SDS011;756;49.982;8.240;2022-08-25T12:09:32;8.80;;;6.83;;
1525;SDS011;756;49.982;8.240;2022-08-25T12:12:26;8.40;;;6.70;;
1525;SDS011;756;49.982;8.240;2022-08-25T12:14:52;6.97;;;6.23;;
1525;SDS011;756;49.982;8.240;2022-08-25T12:17:21;6.20;;;5.60;;
1525;SDS011;756;49.982;8.240;2022-08-25T12:19:54;6.57;;;5.80;;
1525;SDS011;756;49.982;8.240;2022-08-25T12:25:07;7.03;;;6.40;;
1525;SDS011;756;49.982;8.240;2022-08-25T12:30:37;7.53;;;6.23;;
1525;SDS011;756;49.982;8.240;2022-08-25T12:35:58;6.80;;;6.10;;
1525;SDS011;756;49.982;8.240;2022-08-25T12:38:31;6.87;;;6.17;;
1525;SDS011;756;49.982;8.240;2022-08-25T12:41:10;8.23;;;6.77;;
1525;SDS011;756;49.982;8.240;2022-08-25T12:44:16;8.00;;;6.07;;
1525;SDS011;756;49.982;8.240;2022-08-25T12:49:48;6.17;;;5.60;;
1525;SDS011;756;49.982;8.240;2022-08-25T12:52:16;6.40;;;5.80;;
1525;SDS011;756;49.982;8.240;2022-08-25T12:54:52;6.88;;;6.30;;
1525;SDS011;756;49.982;8.240;2022-08-25T12:57:33;6.30;;;5.70;;
1525;SDS011;756;49.982;8.240;2022-08-25T13:00:25;6.33;;;5.67;;
1525;SDS011;756;49.982;8.240;2022-08-25T13:06:04;6.80;;;6.27;;
1525;SDS011;756;49.982;8.240;2022-08-25T13:11:23;6.30;;;5.72;;
1525;SDS011;756;49.982;8.240;2022-08-25T13:14:03;7.00;;;5.77;;
1525;SDS011;756;49.982;8.240;2022-08-25T13:16:53;8.10;;;7.07;;
1525;SDS011;756;49.982;8.240;2022-08-25T13:19:21;8.33;;;6.20;;
1525;SDS011;756;49.982;8.240;2022-08-25T13:21:50;10.67;;;6.80;;
1525;SDS011;756;49.982;8.240;2022-08-25T13:24:21;7.00;;;6.37;;
1525;SDS011;756;49.982;8.240;2022-08-25T13:27:08;6.20;;;5.60;;
1525;SDS011;756;49.982;8.240;2022-08-25T13:29:49;6.88;;;6.28;;
1525;SDS011;756;49.982;8.240;2022-08-25T13:32:26;6.60;;;5.57;;
1525;SDS011;756;49.982;8.240;2022-08-25T13:37:46;5.97;;;5.47;;
1525;SDS011;756;49.982;8.240;2022-08-25T13:40:26;6.40;;;5.90;;
1525;SDS011;756;49.982;8.240;2022-08-25T13:42:57;6.40;;;5.80;;
1525;SDS011;756;49.982;8.240;2022-08-25T13:45:29;6.03;;;5.53;;
1525;SDS011;756;49.982;8.240;2022-08-25T13:48:07;5.87;;;5.37;;
1525;SDS011;756;49.982;8.240;2022-08-25T13:50:51;5.43;;;4.80;;
1525;SDS011;756;49.982;8.240;2022-08-25T13:53:22;6.17;;;5.63;;
1525;SDS011;756;49.982;8.240;2022-08-25T13:55:51;6.22;;;5.63;;
1525;SDS011;756;49.982;8.240;2022-08-25T13:58:23;5.60;;;5.00;;
1525;SDS011;756;49.982;8.240;2022-08-25T14:01:16;5.47;;;4.95;;
1525;SDS011;756;49.982;8.240;2022-08-25T14:04:20;6.28;;;5.65;;
1525;SDS011;756;49.982;8.240;2022-08-25T14:09:47;6.15;;;5.43;;
1525;SDS011;756;49.982;8.240;2022-08-25T14:14:58;8.10;;;5.25;;
1525;SDS011;756;49.982;8.240;2022-08-25T14:17:25;5.40;;;4.90;;
1525;SDS011;756;49.982;8.240;2022-08-25T14:20:05;5.75;;;5.18;;
1525;SDS011;756;49.982;8.240;2022-08-25T14:22:55;5.25;;;4.68;;
1525;SDS011;756;49.982;8.240;2022-08-25T14:25:27;7.45;;;5.18;;
1525;SDS011;756;49.982;8.240;2022-08-25T14:27:56;4.82;;;4.43;;
1525;SDS011;756;49.982;8.240;2022-08-25T14:30:33;5.30;;;4.33;;
1525;SDS011;756;49.982;8.240;2022-08-25T14:33:02;5.65;;;5.15;;
1525;SDS011;756;49.982;8.240;2022-08-25T14:35:31;4.50;;;4.10;;
1525;SDS011;756;49.982;8.240;2022-08-25T14:38:01;4.53;;;4.13;;
1525;SDS011;756;49.982;8.240;2022-08-25T14:40:36;5.43;;;4.93;;
1525;SDS011;756;49.982;8.240;2022-08-25T14:43:04;4.60;;;4.20;;
1525;SDS011;756;49.982;8.240;2022-08-25T14:45:35;4.70;;;4.30;;
1525;SDS011;756;49.982;8.240;2022-08-25T14:48:06;4.43;;;4.03;;
1525;SDS011;756;49.982;8.240;2022-08-25T14:50:36;6.47;;;4.27;;
1525;SDS011;756;49.982;8.240;2022-08-25T14:53:07;5.77;;;4.17;;
1525;SDS011;756;49.982;8.240;2022-08-25T14:55:35;3.80;;;3.50;;
1525;SDS011;756;49.982;8.240;2022-08-25T14:58:02;4.00;;;3.70;;
1525;SDS011;756;49.982;8.240;2022-08-25T15:00:32;4.63;;;3.78;;
1525;SDS011;756;49.982;8.240;2022-08-25T15:03:05;6.50;;;4.18;;
1525;SDS011;756;49.982;8.240;2022-08-25T15:05:32;5.15;;;4.28;;
1525;SDS011;756;49.982;8.240;2022-08-25T15:07:59;4.40;;;3.73;;
1525;SDS011;756;49.982;8.240;2022-08-25T15:10:46;4.23;;;3.87;;
1525;SDS011;756;49.982;8.240;2022-08-25T15:13:12;4.88;;;3.63;;
1525;SDS011;756;49.982;8.240;2022-08-25T15:15:42;3.97;;;3.67;;
1525;SDS011;756;49.982;8.240;2022-08-25T15:18:18;4.90;;;3.75;;
1525;SDS011;756;49.982;8.240;2022-08-25T15:20:46;4.13;;;3.83;;
1525;SDS011;756;49.982;8.240;2022-08-25T15:23:15;5.30;;;4.10;;
1525;SDS011;756;49.982;8.240;2022-08-25T15:25:44;5.10;;;4.60;;
1525;SDS011;756;49.982;8.240;2022-08-25T15:28:12;5.43;;;4.93;;
1525;SDS011;756;49.982;8.240;2022-08-25T15:30:42;4.68;;;4.28;;
1525;SDS011;756;49.982;8.240;2022-08-25T15:33:11;4.72;;;4.32;;
1525;SDS011;756;49.982;8.240;2022-08-25T15:35:38;5.30;;;4.90;;
1525;SDS011;756;49.982;8.240;2022-08-25T15:38:06;4.70;;;4.03;;
1525;SDS011;756;49.982;8.240;2022-08-25T15:40:33;5.03;;;4.45;;
1525;SDS011;756;49.982;8.240;2022-08-25T15:43:03;4.00;;;3.70;;
1525;SDS011;756;49.982;8.240;2022-08-25T15:45:32;8.75;;;4.53;;
1525;SDS011;756;49.982;8.240;2022-08-25T15:48:00;5.45;;;3.78;;
1525;SDS011;756;49.982;8.240;2022-08-25T15:50:28;4.00;;;3.70;;
1525;SDS011;756;49.982;8.240;2022-08-25T15:52:55;3.97;;;3.67;;
1525;SDS011;756;49.982;8.240;2022-08-25T15:55:23;5.22;;;4.72;;
1525;SDS011;756;49.982;8.240;2022-08-25T15:57:50;4.50;;;4.15;;
1525;SDS011;756;49.982;8.240;2022-08-25T16:00:17;3.50;;;3.20;;
1525;SDS011;756;49.982;8.240;2022-08-25T16:02:46;5.97;;;5.28;;
1525;SDS011;756;49.982;8.240;2022-08-25T16:05:13;4.80;;;4.30;;
1525;SDS011;756;49.982;8.240;2022-08-25T16:07:41;4.65;;;4.15;;
1525;SDS011;756;49.982;8.240;2022-08-25T16:10:11;4.80;;;4.40;;
1525;SDS011;756;49.982;8.240;2022-08-25T16:12:38;3.88;;;3.55;;
1525;SDS011;756;49.982;8.240;2022-08-25T16:15:08;4.07;;;3.67;;
1525;SDS011;756;49.982;8.240;2022-08-25T16:17:37;4.30;;;3.90;;
1525;SDS011;756;49.982;8.240;2022-08-25T16:20:09;4.60;;;4.30;;
1525;SDS011;756;49.982;8.240;2022-08-25T16:22:39;4.05;;;3.65;;
1525;SDS011;756;49.982;8.240;2022-08-25T16:25:06;4.88;;;4.38;;
1525;SDS011;756;49.982;8.240;2022-08-25T16:27:33;4.80;;;4.07;;
1525;SDS011;756;49.982;8.240;2022-08-25T16:30:05;5.20;;;3.88;;
1525;SDS011;756;49.982;8.240;2022-08-25T16:32:42;4.35;;;3.95;;
1525;SDS011;756;49.982;8.240;2022-08-25T16:35:09;5.15;;;4.68;;
1525;SDS011;756;49.982;8.240;2022-08-25T16:37:36;4.80;;;4.40;;
1525;SDS011;756;49.982;8.240;2022-08-25T16:40:06;3.88;;;3.50;;
1525;SDS011;756;49.982;8.240;2022-08-25T16:42:33;4.50;;;3.88;;
1525;SDS011;756;49.982;8.240;2022-08-25T16:45:00;4.20;;;3.90;;
1525;SDS011;756;49.982;8.240;2022-08-25T16:47:30;5.13;;;4.50;;
1525;SDS011;756;49.982;8.240;2022-08-25T16:50:04;4.50;;;4.10;;
1525;SDS011;756;49.982;8.240;2022-08-25T16:52:31;4.50;;;4.10;;
1525;SDS011;756;49.982;8.240;2022-08-25T16:55:17;6.75;;;4.82;;
1525;SDS011;756;49.982;8.240;2022-08-25T16:57:48;6.35;;;4.70;;
1525;SDS011;756;49.982;8.240;2022-08-25T17:00:21;5.13;;;4.22;;
1525;SDS011;756;49.982;8.240;2022-08-25T17:02:55;4.82;;;4.43;;
1525;SDS011;756;49.982;8.240;2022-08-25T17:05:25;4.70;;;4.30;;
1525;SDS011;756;49.982;8.240;2022-08-25T17:07:54;4.75;;;4.28;;
1525;SDS011;756;49.982;8.240;2022-08-25T17:10:42;4.93;;;4.40;;
1525;SDS011;756;49.982;8.240;2022-08-25T17:13:09;4.65;;;4.18;;
1525;SDS011;756;49.982;8.240;2022-08-25T17:15:43;5.13;;;4.47;;
1525;SDS011;756;49.982;8.240;2022-08-25T17:18:11;4.90;;;4.40;;
1525;SDS011;756;49.982;8.240;2022-08-25T17:20:39;6.10;;;5.53;;
1525;SDS011;756;49.982;8.240;2022-08-25T17:23:08;5.47;;;4.13;;
1525;SDS011;756;49.982;8.240;2022-08-25T17:25:38;6.40;;;4.67;;
1525;SDS011;756;49.982;8.240;2022-08-25T17:28:08;6.80;;;4.07;;
1525;SDS011;756;49.982;8.240;2022-08-25T17:30:38;4.82;;;4.43;;
1525;SDS011;756;49.982;8.240;2022-08-25T17:33:05;6.47;;;4.77;;
1525;SDS011;756;49.982;8.240;2022-08-25T17:35:37;5.38;;;4.85;;
1525;SDS011;756;49.982;8.240;2022-08-25T17:38:05;5.90;;;5.25;;
1525;SDS011;756;49.982;8.240;2022-08-25T17:40:33;5.18;;;4.68;;
1525;SDS011;756;49.982;8.240;2022-08-25T17:43:01;5.07;;;4.63;;
1525;SDS011;756;49.982;8.240;2022-08-25T17:45:27;5.00;;;4.22;;
1525;SDS011;756;49.982;8.240;2022-08-25T17:47:56;5.10;;;4.70;;